Ana Sayfa
METAR-TAF:

METAR-TAF

Havaalanları :

Chatham Municipal Airport

Chatham, Massachusetts, Amerika Birleşik Devletleri

Enlem: 41-41-15N, Boylam: 069-59-36W, yükseklik: 20 m

Güncel hava durumu gözlemi

Rapor saat 22:52 UTC de 1 saat ve 6 dakika önce yapıldı.
Rüzgar doğu/kuzeydoğudan 8 kt
Sıcaklık 19°C
Nem 100%
Basınç 1014 hPa
Görüş mesafesi: 0.4 km
sis

METAR: KCQX 182252Z AUTO 06008KT 1/4SM FG VV002 19/19 A2994 RMK AO2 RAE46 SLP139 P0001 T01940194

Saat: 19:58 (23:58 UTC)


TAF: eksik

4.000'den fazla havaalanı için hava durumu gözlemleri ve tahminleri (METAR ve TAF raporları).

Kullanılabilir istasyonlar harita üzerinde sarı ve kırmızı noktalarla gösterilir.

İstasyonun adını görmek için fareyi noktanın üzerinde gezdirin.

Sonrasında hava gözlem ve tahminlerini görmek için tıklayın.

Haritayı değiştirmek için: yaklaştırmak için siyah artı işaretli yeşil düğmeye ve uzaklaştırmak için de eksi işaretli düğmeye hızla tıklayın; bitişik haritalar için yeşil okları kullanın.


METAR-TAF: